Latest Weather Observations for Thevenard

IDS60801

Issued at 12:01 am CST Friday 29 July 2016 (issued every 30 minutes, with the page automatically refreshed every 10 minutes)

About weather observations | Map of weather stations | Latest weather observations for SA | Other Formats
Station Details ID: 018200 Name: THEVENARD WIND Lat: -32.18 Lon: 133.63 Height: 8.54 m
Data from the previous 72 hours. | See also: Recent months for locations in South Australia
Date/Time
CST
Temp
°C
App
Temp
°C
Dew
Point
°C
Rel
Hum
%
Delta-T
°C
Wind Press
QNH
hPa
Press
MSL
hPa
Rain since
9am
mm
Dir  Spd
km/h
Gust
km/h
Spd
kts
Gust
kts
29/12:00am - - - - - E 13 17 7 9 - - -
 
Date/Time
CST
Temp
°C
App
Temp
°C
Dew
Point
°C
Rel
Hum
%
Delta-T
°C
Wind Press
QNH
hPa
Press
MSL
hPa
Rain since
9am
mm
Dir  Spd
km/h
Gust
km/h
Spd
kts
Gust
kts
28/11:30pm - - - - - ENE 11 13 6 7 - - -
28/11:00pm - - - - - ENE 13 17 7 9 - - -
28/10:30pm - - - - - ENE 11 15 6 8 - - -
28/10:00pm - - - - - ENE 11 15 6 8 - - -
28/09:30pm - - - - - ENE 13 15 7 8 - - -
28/09:00pm - - - - - E 11 13 6 7 - - -
28/08:30pm - - - - - E 13 19 7 10 - - -
28/08:00pm - - - - - ESE 15 19 8 10 - - -
28/07:30pm - - - - - SE 20 24 11 13 - - -
28/07:00pm - - - - - SE 17 20 9 11 - - -
28/06:30pm - - - - - SE 17 20 9 11 - - -
28/06:00pm - - - - - SE 17 20 9 11 - - -
28/05:30pm - - - - - SE 19 19 10 10 - - -
28/05:00pm - - - - - SE 15 19 8 10 - - -
28/04:30pm - - - - - SSE 17 19 9 10 - - -
28/04:00pm - - - - - SSE 13 17 7 9 - - -
28/03:30pm - - - - - SSE 13 15 7 8 - - -
28/03:00pm - - - - - SSE 13 17 7 9 - - -
28/02:30pm - - - - - SSE 9 11 5 6 - - -
28/02:00pm - - - - - ESE 6 9 3 5 - - -
28/01:30pm - - - - - ESE 6 7 3 4 - - -
28/01:00pm - - - - - SSE 4 6 2 3 - - -
28/12:30pm - - - - - SSE 2 4 1 2 - - -
28/12:00pm - - - - - WNW 2 4 1 2 - - -
28/11:30am - - - - - N 7 9 4 5 - - -
28/11:00am - - - - - NNE 7 9 4 5 - - -
28/10:30am - - - - - NNE 9 11 5 6 - - -
28/10:00am - - - - - NNE 11 13 6 7 - - -
28/09:30am - - - - - NNE 11 13 6 7 - - -
28/09:00am - - - - - NNE 7 9 4 5 - - -
28/08:30am - - - - - NNE 9 13 5 7 - - -
28/08:00am - - - - - NNE 11 13 6 7 - - -
28/07:30am - - - - - NNE 9 11 5 6 - - -
28/07:00am - - - - - NNE 7 9 4 5 - - -
28/06:30am - - - - - NNE 11 13 6 7 - - -
28/06:00am - - - - - N 13 15 7 8 - - -
28/05:30am - - - - - N 11 13 6 7 - - -
28/05:00am - - - - - N 9 11 5 6 - - -
28/04:30am - - - - - N 13 15 7 8 - - -
28/04:00am - - - - - NE 9 11 5 6 - - -
28/03:30am - - - - - N 13 15 7 8 - - -
28/03:00am - - - - - N 11 13 6 7 - - -
28/02:30am - - - - - N 11 13 6 7 - - -
28/02:00am - - - - - NNE 9 13 5 7 - - -
28/01:30am - - - - - NNE 7 9 4 5 - - -
28/01:00am - - - - - SSE 7 11 4 6 - - -
28/12:30am - - - - - S 6 7 3 4 - - -
28/12:00am - - - - - SSW 9 13 5 7 - - -
 
Date/Time
CST
Temp
°C
App
Temp
°C
Dew
Point
°C
Rel
Hum
%
Delta-T
°C
Wind Press
QNH
hPa
Press
MSL
hPa
Rain since
9am
mm
Dir  Spd
km/h
Gust
km/h
Spd
kts
Gust
kts
27/11:30pm - - - - - SW 6 7 3 4 - - -
27/11:00pm - - - - - SSW 9 17 5 9 - - -
27/10:30pm - - - - - S 7 11 4 6 - - -
27/10:00pm - - - - - S 7 13 4 7 - - -
27/09:30pm - - - - - S 7 9 4 5 - - -
27/09:00pm - - - - - SW 6 7 3 4 - - -
27/08:30pm - - - - - S 9 15 5 8 - - -
27/08:00pm - - - - - SSE 7 15 4 8 - - -
27/07:30pm - - - - - S 7 11 4 6 - - -
27/07:00pm - - - - - S 7 9 4 5 - - -
27/06:30pm - - - - - SSW 19 22 10 12 - - -
27/06:00pm - - - - - S 11 15 6 8 - - -
27/05:30pm - - - - - WSW 9 11 5 6 - - -
27/05:00pm - - - - - WSW 11 13 6 7 - - -
27/04:30pm - - - - - SW 13 17 7 9 - - -
27/04:00pm - - - - - SW 17 20 9 11 - - -
27/03:30pm - - - - - SW 13 19 7 10 - - -
27/03:00pm - - - - - SW 9 15 5 8 - - -
27/02:30pm - - - - - SW 13 17 7 9 - - -
27/02:00pm - - - - - SW 11 15 6 8 - - -
27/01:30pm - - - - - WSW 15 19 8 10 - - -
27/01:00pm - - - - - SSW 20 22 11 12 - - -
27/12:30pm - - - - - SSW 13 17 7 9 - - -
27/12:00pm - - - - - SSW 19 22 10 12 - - -
27/11:30am - - - - - SSW 11 17 6 9 - - -
27/11:00am - - - - - SSW 13 19 7 10 - - -
27/10:30am - - - - - S 15 19 8 10 - - -
27/10:00am - - - - - SSW 17 20 9 11 - - -
27/09:30am - - - - - SSW 20 26 11 14 - - -
27/09:00am - - - - - SSW 24 32 13 17 - - -
27/08:30am - - - - - SSW 19 22 10 12 - - -
27/08:00am - - - - - S 20 32 11 17 - - -
27/07:30am - - - - - S 26 32 14 17 - - -
27/07:00am - - - - - SSW 17 20 9 11 - - -
27/06:30am - - - - - S 20 30 11 16 - - -
27/06:00am - - - - - S 28 35 15 19 - - -
27/05:30am - - - - - S 26 32 14 17 - - -
27/05:00am - - - - - S 26 33 14 18 - - -
27/04:30am - - - - - SSW 28 33 15 18 - - -
27/04:00am - - - - - SSW 28 39 15 21 - - -
27/03:30am - - - - - S 33 43 18 23 - - -
27/03:00am - - - - - SSW 35 43 19 23 - - -
27/02:30am - - - - - SSW 37 46 20 25 - - -
27/02:00am - - - - - SSW 35 43 19 23 - - -
27/01:30am - - - - - SSW 33 39 18 21 - - -
27/01:00am - - - - - SSW 35 44 19 24 - - -
27/12:30am - - - - - SSW 39 50 21 27 - - -
27/12:00am - - - - - SSW 39 48 21 26 - - -
 
Date/Time
CST
Temp
°C
App
Temp
°C
Dew
Point
°C
Rel
Hum
%
Delta-T
°C
Wind Press
QNH
hPa
Press
MSL
hPa
Rain since
9am
mm
Dir  Spd
km/h
Gust
km/h
Spd
kts
Gust
kts
26/11:30pm - - - - - SSW 39 54 21 29 - - -
26/11:00pm - - - - - SSW 37 46 20 25 - - -
26/10:30pm - - - - - SSW 43 52 23 28 - - -
26/10:00pm - - - - - SSW 41 54 22 29 - - -
26/09:30pm - - - - - SW 35 54 19 29 - - -
26/09:27pm - - - - - SW 32 54 17 29 - - -
26/09:00pm - - - - - SW 48 61 26 33 - - -
26/08:51pm - - - - - SW 43 61 23 33 - - -
26/08:30pm - - - - - WSW 35 44 19 24 - - -
26/08:00pm - - - - - W 35 46 19 25 - - -
26/07:30pm - - - - - WSW 35 43 19 23 - - -
26/07:00pm - - - - - W 35 43 19 23 - - -
26/06:30pm - - - - - W 35 43 19 23 - - -
26/06:00pm - - - - - W 39 48 21 26 - - -
26/05:30pm - - - - - W 41 52 22 28 - - -
26/05:00pm - - - - - WSW 50 65 27 35 - - -
26/04:30pm - - - - - W 41 50 22 27 - - -
26/04:00pm - - - - - W 41 56 22 30 - - -
26/03:30pm - - - - - W 39 52 21 28 - - -
26/03:00pm - - - - - WSW 43 54 23 29 - - -
26/02:30pm - - - - - WSW 41 50 22 27 - - -
26/02:12pm - - - - - W 39 57 21 31 - - -
26/02:00pm - - - - - W 39 48 21 26 - - -
26/01:30pm - - - - - W 46 59 25 32 - - -
26/01:00pm - - - - - W 39 52 21 28 - - -
26/12:40pm - - - - - W 32 54 17 29 - - -
26/12:30pm - - - - - W 32 41 17 22 - - -
26/12:00pm - - - - - W 32 39 17 21 - - -
26/11:30am - - - - - W 33 43 18 23 - - -
26/11:00am - - - - - W 32 43 17 23 - - -
26/10:30am - - - - - WNW 30 37 16 20 - - -
26/10:00am - - - - - WNW 26 33 14 18 - - -
26/09:30am - - - - - WNW 28 35 15 19 - - -
26/09:00am - - - - - WNW 26 32 14 17 - - -
26/08:30am - - - - - NW 24 32 13 17 - - -
26/08:00am - - - - - WNW 24 28 13 15 - - -
26/07:30am - - - - - NW 26 30 14 16 - - -
26/07:00am - - - - - NW 20 26 11 14 - - -
26/06:30am - - - - - NW 19 24 10 13 - - -
26/06:00am - - - - - WNW 17 20 9 11 - - -
26/05:30am - - - - - WNW 15 19 8 10 - - -
26/05:00am - - - - - W 17 20 9 11 - - -
26/04:30am - - - - - WNW 19 22 10 12 - - -
26/04:00am - - - - - WNW 13 17 7 9 - - -
26/03:30am - - - - - WNW 13 15 7 8 - - -
26/03:00am - - - - - SSW 11 13 6 7 - - -
26/02:30am - - - - - SSW 7 9 4 5 - - -
26/02:00am - - - - - S 9 11 5 6 - - -
26/01:30am - - - - - W 13 15 7 8 - - -
26/01:00am - - - - - WNW 15 17 8 9 - - -
26/12:30am - - - - - W 11 13 6 7 - - -

Other Formats:

Comma delimited format used in spreadsheet applications
http://www.bom.gov.au/fwo/IDS60801/IDS60801.95653.axf

JavaScript Object Notation format (JSON) in row-major order
http://www.bom.gov.au/fwo/IDS60801/IDS60801.95653.json